KVEL/VEL METAR and TAF weather

Enter ICAO airport designator
Station Type Date Time Source
KVEL METAR 2019/12/12 08:53 UTC NOAA

KVEL 120853Z AUTO 00000KT 1/4SM FZFG VV002 M06/M08 A3021 RMK AO2 SLP267 I1001 I3003 T10561078 58003


Station Type Date Time Source
KVEL Decoded METAR 2019/12/12 08:53 UTC NOAA

VERNAL AIRPORT, UT, United States (KVEL) 40-26N 109-30W 1604M
Dec 12, 2019 - 03:53 AM EST / 2019.12.12 0853 UTC
Wind: Calm:0
Visibility: 1/4 mile(s):0
Sky conditions: obscured
Weather: freezing fog
Temperature: 21.9 F (-5.6 C)
Dew Point: 18.0 F (-7.8 C)
Relative Humidity: 84%
Pressure (altimeter): 30.21 in. Hg (1023 hPa)
Pressure tendency: 0.01 inches (0.3 hPa) lower than three hours ago
ob: KVEL 120853Z AUTO 00000KT 1/4SM FZFG VV002 M06/M08 A3021 RMK AO2 SLP267 I1001 I3003 T10561078 58003
cycle: 9

Station Type Date Time Source
KVEL TAF 2019/12/12 06:22 UTC NOAA

TAF KVEL 120520Z 1206/1306 VRB03KT 1/2SM FG SCT003
TEMPO 1206/1210 1/4SM FG VV002
FM121600 VRB03KT P6SM SCT010 BKN090
FM130300 VRB03KT P6SM SCT030 BKN060

Example: see airport list